createdAt,value
2018-07-21T00:05:14.002Z,18.06
2018-07-21T00:15:11.853Z,17.94
2018-07-21T00:25:09.114Z,17.81
2018-07-21T00:35:03.445Z,17.69
2018-07-21T00:45:01.866Z,17.60
2018-07-21T00:54:58.858Z,17.40
2018-07-21T01:04:54.363Z,17.26
2018-07-21T01:14:53.358Z,17.26
2018-07-21T01:24:49.886Z,17.30
2018-07-21T01:34:45.751Z,17.23
2018-07-21T01:44:43.700Z,17.02
2018-07-21T01:54:40.692Z,16.96
2018-07-21T02:04:37.740Z,16.85
2018-07-21T02:14:34.896Z,16.81
2018-07-21T02:24:32.135Z,16.73
2018-07-21T02:34:27.153Z,16.66
2018-07-21T02:44:25.869Z,16.73
2018-07-21T02:54:22.665Z,16.60
2018-07-21T03:04:19.985Z,16.52
2018-07-21T03:14:17.391Z,16.45
2018-07-21T03:24:14.931Z,16.37
2018-07-21T03:34:12.601Z,16.33
2018-07-21T03:44:09.054Z,16.47
2018-07-21T03:54:07.655Z,16.52
2018-07-21T04:04:06.805Z,16.67
2018-07-21T04:14:04.071Z,16.95
2018-07-21T04:24:01.642Z,17.40
2018-07-21T04:33:59.420Z,17.81
2018-07-21T04:43:58.266Z,18.07
2018-07-21T04:53:55.839Z,18.28
2018-07-21T05:03:50.692Z,18.55
2018-07-21T05:13:49.431Z,19.09
2018-07-21T05:23:46.142Z,19.27
2018-07-21T05:33:42.612Z,19.33
2018-07-21T05:43:41.401Z,19.65
2018-07-21T05:53:38.511Z,19.68
2018-07-21T06:03:35.341Z,20.15
2018-07-21T06:13:34.639Z,20.80
2018-07-21T06:23:32.961Z,20.86
2018-07-21T06:33:27.211Z,21.45
2018-07-21T06:43:23.982Z,22.38
2018-07-21T06:53:23.200Z,22.68
2018-07-21T07:03:17.520Z,23.04
2018-07-21T07:13:16.301Z,23.08
2018-07-21T07:23:14.908Z,23.18
2018-07-21T07:33:13.299Z,23.68
2018-07-21T07:43:07.812Z,23.82
2018-07-21T07:53:05.932Z,24.40
2018-07-21T08:03:03.209Z,25.17
2018-07-21T08:13:00.847Z,24.88
2018-07-21T08:22:57.638Z,24.93
2018-07-21T08:32:55.102Z,25.01
2018-07-21T08:42:46.761Z,26.09
2018-07-21T08:52:45.601Z,26.45
2018-07-21T09:02:41.650Z,26.01
2018-07-21T09:12:37.385Z,25.56
2018-07-21T09:22:35.078Z,25.23
2018-07-21T09:32:28.649Z,25.40
2018-07-21T09:42:26.706Z,25.41
2018-07-21T09:52:21.945Z,23.97
2018-07-21T10:02:19.448Z,24.75
2018-07-21T10:12:20.551Z,25.90
2018-07-21T10:22:16.992Z,26.08
2018-07-21T10:32:13.960Z,26.40
2018-07-21T10:42:12.244Z,27.05
2018-07-21T10:52:07.150Z,26.92
2018-07-21T11:02:03.371Z,27.97
2018-07-21T11:12:03.666Z,28.50
2018-07-21T11:22:02.970Z,29.28
2018-07-21T11:31:40.374Z,29.10
2018-07-21T11:41:17.654Z,30.12
2018-07-21T11:50:56.964Z,31.23
2018-07-21T12:00:51.141Z,28.32
2018-07-21T12:10:49.517Z,29.55
2018-07-21T12:20:45.054Z,30.21
2018-07-21T12:30:40.894Z,27.69
2018-07-21T12:40:37.364Z,25.83
2018-07-21T12:50:32.507Z,23.55
2018-07-21T13:00:25.831Z,22.32
2018-07-21T13:10:22.596Z,21.86
2018-07-21T13:20:19.648Z,21.85
2018-07-21T13:30:16.155Z,22.31
2018-07-21T13:40:14.014Z,23.40
2018-07-21T13:50:12.146Z,23.58
2018-07-21T14:00:08.128Z,23.37
2018-07-21T14:10:04.820Z,22.79
2018-07-21T14:19:58.480Z,21.53
2018-07-21T14:29:53.136Z,21.04
2018-07-21T14:39:48.033Z,21.01
2018-07-21T14:49:44.780Z,20.91
2018-07-21T14:59:41.054Z,20.90
2018-07-21T15:09:39.181Z,20.86
2018-07-21T15:19:35.751Z,21.01
2018-07-21T15:29:31.028Z,21.09
2018-07-21T15:39:25.409Z,21.30
2018-07-21T15:49:18.192Z,20.79
2018-07-21T15:59:12.622Z,20.65
2018-07-21T16:09:07.804Z,20.93
2018-07-21T16:19:07.346Z,21.14
2018-07-21T16:29:01.859Z,20.96
2018-07-21T16:38:56.400Z,20.82
2018-07-21T16:48:54.555Z,20.80
2018-07-21T16:58:50.281Z,20.87
2018-07-21T17:08:44.854Z,20.62
2018-07-21T17:18:42.659Z,20.33
2018-07-21T17:28:39.954Z,20.20
2018-07-21T17:38:36.637Z,19.83
2018-07-21T17:48:32.343Z,19.79
2018-07-21T17:58:26.664Z,19.40
2018-07-21T18:08:22.539Z,19.61
2018-07-21T18:18:15.482Z,20.03
2018-07-21T18:28:11.720Z,19.75
2018-07-21T18:38:07.345Z,19.68
2018-07-21T18:48:02.206Z,19.33
2018-07-21T18:57:58.104Z,19.15
2018-07-21T19:07:54.420Z,18.94
2018-07-21T19:17:50.788Z,18.90
2018-07-21T19:27:45.420Z,18.98
2018-07-21T19:37:43.854Z,19.27
2018-07-21T19:47:41.375Z,19.28
2018-07-21T19:57:34.614Z,19.35
2018-07-21T20:07:28.950Z,19.11
2018-07-21T20:17:22.625Z,18.84
2018-07-21T20:27:16.828Z,19.24
2018-07-21T20:37:13.973Z,19.43
2018-07-21T20:47:10.281Z,19.71
2018-07-21T20:57:07.036Z,19.38
2018-07-21T21:07:04.097Z,19.38
2018-07-21T21:17:00.011Z,19.79
2018-07-21T21:26:52.449Z,19.31
2018-07-21T21:36:49.035Z,19.55
2018-07-21T21:46:44.446Z,19.45
2018-07-21T21:56:43.853Z,19.35
2018-07-21T22:06:41.301Z,19.32
2018-07-21T22:16:39.091Z,19.45
2018-07-21T22:26:36.653Z,19.48
2018-07-21T22:36:32.122Z,19.18
2018-07-21T22:46:29.895Z,18.90
2018-07-21T22:56:24.075Z,19.05
2018-07-21T23:06:18.533Z,18.94
2018-07-21T23:16:17.017Z,18.89
2018-07-21T23:26:13.833Z,18.89
2018-07-21T23:36:06.981Z,18.44
2018-07-21T23:46:04.602Z,18.28
2018-07-21T23:56:01.964Z,18.32
